createdAt,value
2022-10-22T00:02:59.348Z,63.46
2022-10-22T00:06:02.466Z,63.39
2022-10-22T00:09:05.484Z,63.35
2022-10-22T00:12:08.542Z,63.43
2022-10-22T00:15:12.058Z,63.26
2022-10-22T00:18:15.027Z,63.22
2022-10-22T00:21:17.902Z,63.20
2022-10-22T00:24:20.903Z,63.19
2022-10-22T00:27:23.942Z,63.11
2022-10-22T00:30:27.022Z,63.18
2022-10-22T00:33:30.932Z,63.17
2022-10-22T00:36:33.833Z,63.17
2022-10-22T00:39:36.677Z,63.23
2022-10-22T00:42:39.826Z,63.14
2022-10-22T00:45:43.809Z,63.24
2022-10-22T00:48:46.795Z,63.12
2022-10-22T00:51:49.806Z,63.21
2022-10-22T00:54:52.845Z,63.02
2022-10-22T00:57:57.806Z,63.26
2022-10-22T01:01:00.976Z,63.09
2022-10-22T01:04:03.977Z,63.24
2022-10-22T01:07:07.182Z,63.29
2022-10-22T01:10:24.241Z,63.14
2022-10-22T01:13:48.819Z,63.23
2022-10-22T01:17:24.357Z,63.16
2022-10-22T01:20:38.616Z,63.18
2022-10-22T01:24:12.045Z,63.03
2022-10-22T01:27:27.894Z,63.02
2022-10-22T01:30:31.047Z,62.97
2022-10-22T01:33:34.410Z,63.07
2022-10-22T01:36:38.820Z,63.12
2022-10-22T01:39:45.443Z,63.11
2022-10-22T01:42:57.498Z,62.96
2022-10-22T01:46:03.788Z,63.08
2022-10-22T01:49:33.269Z,63.11
2022-10-22T01:53:13.555Z,63.12
2022-10-22T01:56:50.520Z,63.15
2022-10-22T02:00:02.560Z,63.00
2022-10-22T02:03:19.811Z,63.08
2022-10-22T02:06:27.984Z,63.05
2022-10-22T02:09:33.394Z,63.08
2022-10-22T02:12:39.274Z,63.02
2022-10-22T02:15:45.904Z,63.06
2022-10-22T02:18:53.959Z,63.18
2022-10-22T02:21:57.223Z,63.09
2022-10-22T02:25:00.559Z,63.06
2022-10-22T02:28:16.189Z,62.93
2022-10-22T02:31:28.248Z,62.96
2022-10-22T02:34:32.494Z,63.13
2022-10-22T02:37:36.493Z,62.98
2022-10-22T02:40:39.659Z,63.10
2022-10-22T02:43:53.289Z,63.20
2022-10-22T02:46:56.848Z,63.12
2022-10-22T02:49:59.778Z,63.08
2022-10-22T02:53:02.717Z,63.07
2022-10-22T02:56:05.997Z,62.97
2022-10-22T02:59:08.880Z,63.08
2022-10-22T03:02:11.748Z,63.22
2022-10-22T03:05:14.670Z,63.12
2022-10-22T03:08:18.130Z,63.10
2022-10-22T03:11:20.980Z,63.18
2022-10-22T03:14:23.880Z,63.11
2022-10-22T03:17:26.767Z,63.19
2022-10-22T03:20:29.663Z,63.35
2022-10-22T03:23:33.222Z,63.15
2022-10-22T03:26:37.560Z,63.16
2022-10-22T03:29:42.100Z,63.43
2022-10-22T03:32:44.954Z,63.27
2022-10-22T03:35:48.176Z,63.20
2022-10-22T03:38:51.245Z,63.31
2022-10-22T03:41:54.295Z,63.24
2022-10-22T03:44:57.194Z,63.39
2022-10-22T03:48:00.124Z,63.38
2022-10-22T03:51:03.096Z,63.43
2022-10-22T03:54:06.205Z,63.53
2022-10-22T03:57:09.680Z,63.51
2022-10-22T04:00:12.748Z,63.48
2022-10-22T04:03:15.695Z,63.46
2022-10-22T04:06:18.647Z,63.45
2022-10-22T04:09:21.747Z,63.44
2022-10-22T04:12:24.611Z,63.46
2022-10-22T04:15:29.082Z,63.67
2022-10-22T04:18:31.940Z,63.55
2022-10-22T04:21:35.066Z,63.50
2022-10-22T04:24:38.220Z,63.70
2022-10-22T04:27:41.337Z,63.40
2022-10-22T04:30:44.458Z,63.60
2022-10-22T04:33:47.922Z,63.62
2022-10-22T04:36:50.843Z,63.66
2022-10-22T04:39:53.642Z,63.62
2022-10-22T04:42:56.798Z,63.66
2022-10-22T04:46:00.793Z,63.57
2022-10-22T04:49:04.823Z,63.74
2022-10-22T04:52:07.754Z,63.70
2022-10-22T04:55:10.623Z,63.68
2022-10-22T04:58:13.494Z,63.71
2022-10-22T05:01:19.048Z,63.74
2022-10-22T05:04:22.032Z,63.75
2022-10-22T05:07:25.340Z,63.88
2022-10-22T05:10:28.583Z,63.77
2022-10-22T05:13:31.474Z,63.87
2022-10-22T05:16:35.346Z,63.91
2022-10-22T05:19:38.352Z,63.85
2022-10-22T05:22:41.289Z,63.86
2022-10-22T05:25:44.211Z,63.79
2022-10-22T05:28:48.622Z,63.68
2022-10-22T05:31:51.730Z,63.76
2022-10-22T05:34:54.654Z,63.74
2022-10-22T05:41:08.741Z,63.82
2022-10-22T05:44:12.944Z,63.74
2022-10-22T05:47:16.088Z,63.91
2022-10-22T05:50:18.957Z,63.74
2022-10-22T05:53:22.094Z,63.97
2022-10-22T05:56:26.499Z,63.92
2022-10-22T05:59:29.905Z,63.92
2022-10-22T06:02:32.828Z,63.94
2022-10-22T06:05:37.059Z,63.94
2022-10-22T06:08:39.941Z,63.95
2022-10-22T06:11:42.869Z,63.98
2022-10-22T06:14:45.723Z,64.06
2022-10-22T06:17:48.588Z,64.09
2022-10-22T06:20:51.523Z,64.20
2022-10-22T06:23:56.828Z,64.16
2022-10-22T06:26:59.910Z,64.23
2022-10-22T06:30:03.603Z,64.28
2022-10-22T06:33:06.454Z,64.06
2022-10-22T06:36:12.907Z,64.11
2022-10-22T06:39:17.721Z,64.17
2022-10-22T06:42:20.618Z,64.08
2022-10-22T06:45:25.729Z,64.06
2022-10-22T06:48:28.922Z,63.99
2022-10-22T06:51:31.939Z,63.97
2022-10-22T06:54:34.799Z,64.26
2022-10-22T06:58:10.294Z,64.11
2022-10-22T07:01:23.134Z,64.08
2022-10-22T07:04:26.212Z,64.18
2022-10-22T07:07:29.114Z,64.15
2022-10-22T07:10:32.419Z,64.22
2022-10-22T07:13:35.997Z,64.40
2022-10-22T07:16:39.423Z,64.23
2022-10-22T07:19:42.487Z,64.26
2022-10-22T07:22:45.679Z,64.18
2022-10-22T07:25:48.774Z,64.27
2022-10-22T07:28:52.018Z,64.02
2022-10-22T07:31:54.921Z,64.11
2022-10-22T07:34:58.090Z,64.10
2022-10-22T07:38:01.301Z,63.93
2022-10-22T07:41:04.854Z,64.15
2022-10-22T07:44:07.762Z,63.94
2022-10-22T07:47:10.713Z,63.92
2022-10-22T07:50:13.668Z,63.92
2022-10-22T07:53:16.904Z,63.88
2022-10-22T07:56:19.749Z,63.75
2022-10-22T07:59:22.708Z,63.93
2022-10-22T08:02:25.870Z,63.84
2022-10-22T08:05:29.199Z,63.91
2022-10-22T08:08:32.489Z,64.08
2022-10-22T08:11:35.596Z,63.91
2022-10-22T08:14:38.441Z,63.74
2022-10-22T08:17:41.469Z,64.61
2022-10-22T08:20:44.856Z,65.14
2022-10-22T08:23:47.788Z,65.36
2022-10-22T08:26:50.743Z,64.97
2022-10-22T08:29:53.518Z,65.08
2022-10-22T08:32:56.500Z,64.80
2022-10-22T08:35:59.421Z,64.59
2022-10-22T08:39:02.292Z,64.62
2022-10-22T08:42:37.272Z,64.56
2022-10-22T08:46:03.291Z,64.37
2022-10-22T08:49:18.948Z,64.32
2022-10-22T08:52:21.977Z,64.27
2022-10-22T08:55:26.037Z,64.38
2022-10-22T08:58:50.264Z,64.59
2022-10-22T09:01:54.651Z,64.56
2022-10-22T09:05:12.439Z,64.67
2022-10-22T09:08:17.987Z,64.62
2022-10-22T09:11:30.804Z,64.70
2022-10-22T09:14:33.724Z,64.55
2022-10-22T09:17:50.173Z,64.54
2022-10-22T09:21:06.914Z,64.63
2022-10-22T09:24:15.902Z,64.65
2022-10-22T09:27:27.678Z,64.82
2022-10-22T09:30:34.418Z,64.84
2022-10-22T09:33:37.302Z,64.76
2022-10-22T09:36:40.293Z,64.89
2022-10-22T09:39:53.444Z,64.80
2022-10-22T09:42:56.292Z,64.77
2022-10-22T09:46:02.080Z,64.94
2022-10-22T09:49:12.635Z,64.83
2022-10-22T09:52:28.927Z,64.74
2022-10-22T09:55:32.263Z,64.92
2022-10-22T09:58:46.546Z,64.75
2022-10-22T10:02:04.968Z,64.93
2022-10-22T10:05:26.803Z,64.98
2022-10-22T10:08:29.792Z,65.06
2022-10-22T10:11:40.065Z,65.14
2022-10-22T10:15:04.719Z,65.17
2022-10-22T10:18:25.434Z,65.36
2022-10-22T10:21:51.288Z,65.54
2022-10-22T10:25:20.521Z,65.60
2022-10-22T10:28:32.791Z,65.75
2022-10-22T10:31:49.803Z,65.70
2022-10-22T10:35:05.508Z,65.97
2022-10-22T10:38:33.386Z,66.05
2022-10-22T10:41:55.115Z,66.24
2022-10-22T10:45:01.343Z,66.42
2022-10-22T10:48:41.869Z,66.71
2022-10-22T10:51:57.424Z,66.88
2022-10-22T10:55:22.587Z,66.81
2022-10-22T10:58:41.548Z,66.99
2022-10-22T11:01:50.840Z,67.23
2022-10-22T11:05:33.372Z,67.34
2022-10-22T11:08:39.761Z,67.24
2022-10-22T11:11:51.689Z,67.44
2022-10-22T11:15:08.909Z,67.58
2022-10-22T11:18:24.153Z,67.75
2022-10-22T11:21:42.634Z,67.87
2022-10-22T11:24:57.680Z,67.71
2022-10-22T11:28:11.238Z,67.85
2022-10-22T11:31:17.123Z,67.96
2022-10-22T11:34:34.000Z,68.09
2022-10-22T11:37:39.204Z,68.12
2022-10-22T11:40:51.311Z,68.21
2022-10-22T11:44:11.910Z,68.25
2022-10-22T11:47:24.123Z,68.28
2022-10-22T11:50:43.181Z,68.31
2022-10-22T11:53:46.706Z,68.44
2022-10-22T11:56:57.599Z,68.64
2022-10-22T12:00:01.466Z,68.49
2022-10-22T12:03:18.539Z,68.51
2022-10-22T12:06:26.437Z,68.63
2022-10-22T12:09:32.399Z,68.73
2022-10-22T12:12:38.799Z,68.69
2022-10-22T12:15:51.575Z,68.78
2022-10-22T12:19:03.464Z,68.69
2022-10-22T12:22:06.255Z,68.76
2022-10-22T12:25:23.131Z,68.68
2022-10-22T12:28:26.017Z,68.82
2022-10-22T12:31:35.704Z,68.77
2022-10-22T12:34:46.850Z,68.80
2022-10-22T12:37:52.148Z,68.83
2022-10-22T12:40:56.229Z,68.88
2022-10-22T12:44:01.337Z,68.97
2022-10-22T12:47:06.570Z,68.98
2022-10-22T12:50:17.828Z,69.05
2022-10-22T12:53:37.811Z,69.04
2022-10-22T12:56:40.983Z,69.04
2022-10-22T12:59:49.794Z,69.07
2022-10-22T13:02:53.866Z,69.21
2022-10-22T13:05:56.761Z,69.06
2022-10-22T13:08:59.669Z,69.18
2022-10-22T13:12:07.030Z,69.17
2022-10-22T13:15:30.160Z,69.15
2022-10-22T13:18:33.307Z,69.25
2022-10-22T13:21:39.356Z,69.30
2022-10-22T13:24:50.624Z,69.29
2022-10-22T13:27:57.454Z,69.58
2022-10-22T13:31:19.371Z,69.57
2022-10-22T13:34:26.182Z,69.59
2022-10-22T13:37:32.388Z,69.48
2022-10-22T13:40:35.377Z,69.43
2022-10-22T13:43:38.546Z,69.51
2022-10-22T13:46:43.217Z,69.66
2022-10-22T13:49:46.849Z,69.60
2022-10-22T13:52:55.641Z,69.72
2022-10-22T13:56:01.110Z,69.88
2022-10-22T13:59:07.132Z,69.66
2022-10-22T14:02:13.302Z,69.80
2022-10-22T14:05:17.954Z,69.98
2022-10-22T14:08:23.190Z,69.80
2022-10-22T14:11:27.484Z,69.83
2022-10-22T14:14:30.397Z,69.93
2022-10-22T14:17:33.256Z,69.84
2022-10-22T14:20:39.885Z,69.72
2022-10-22T14:23:45.136Z,69.76
2022-10-22T14:26:47.987Z,69.87
2022-10-22T14:29:51.036Z,69.80
2022-10-22T14:32:53.911Z,69.79
2022-10-22T14:35:57.066Z,69.78
2022-10-22T14:38:59.891Z,69.77
2022-10-22T14:42:02.715Z,69.85
2022-10-22T14:45:06.495Z,69.73
2022-10-22T14:48:10.051Z,69.83
2022-10-22T14:51:18.233Z,69.82
2022-10-22T14:54:21.507Z,69.73
2022-10-22T14:57:24.409Z,69.97
2022-10-22T15:00:27.497Z,69.92
2022-10-22T15:03:31.484Z,69.86
2022-10-22T15:06:34.926Z,69.90
2022-10-22T15:09:38.002Z,69.98
2022-10-22T15:12:40.907Z,69.96
2022-10-22T15:15:43.851Z,70.11
2022-10-22T15:18:49.819Z,70.06
2022-10-22T15:21:52.765Z,70.10
2022-10-22T15:24:55.911Z,69.95
2022-10-22T15:28:02.035Z,70.05
2022-10-22T15:31:15.139Z,70.30
2022-10-22T15:34:20.521Z,70.30
2022-10-22T15:37:23.696Z,70.29
2022-10-22T15:40:26.876Z,70.29
2022-10-22T15:43:29.979Z,70.31
2022-10-22T15:46:35.327Z,70.24
2022-10-22T15:49:39.499Z,70.53
2022-10-22T15:52:42.432Z,70.55
2022-10-22T15:55:49.538Z,70.43
2022-10-22T15:58:57.642Z,70.71
2022-10-22T16:02:00.494Z,70.85
2022-10-22T16:05:03.930Z,70.89
2022-10-22T16:08:06.832Z,70.79
2022-10-22T16:11:10.300Z,70.86
2022-10-22T16:14:15.352Z,70.94
2022-10-22T16:17:20.129Z,71.04
2022-10-22T16:20:26.539Z,71.13
2022-10-22T16:23:29.612Z,71.04
2022-10-22T16:26:34.017Z,71.18
2022-10-22T16:29:39.332Z,71.35
2022-10-22T16:32:42.604Z,71.38
2022-10-22T16:35:45.601Z,71.38
2022-10-22T16:38:50.039Z,71.51
2022-10-22T16:41:53.074Z,71.33
2022-10-22T16:44:55.888Z,71.44
2022-10-22T16:47:58.980Z,71.56
2022-10-22T16:51:10.131Z,71.59
2022-10-22T16:54:15.713Z,71.65
2022-10-22T16:57:18.665Z,71.70
2022-10-22T17:00:21.817Z,71.53
2022-10-22T17:03:27.546Z,71.64
2022-10-22T17:06:31.405Z,71.77
2022-10-22T17:09:34.231Z,71.93
2022-10-22T17:12:37.145Z,71.97
2022-10-22T17:15:40.621Z,71.95
2022-10-22T17:21:54.494Z,72.05
2022-10-22T17:25:13.503Z,72.13
2022-10-22T17:28:16.347Z,72.06
2022-10-22T17:31:27.904Z,72.20
2022-10-22T17:34:33.250Z,72.20
2022-10-22T17:37:36.721Z,72.43
2022-10-22T17:40:39.568Z,72.41
2022-10-22T17:43:42.458Z,72.41
2022-10-22T17:46:46.261Z,72.44
2022-10-22T17:49:50.947Z,72.53
2022-10-22T17:52:53.856Z,72.57
2022-10-22T17:56:07.031Z,72.53
2022-10-22T17:59:13.161Z,72.58
2022-10-22T18:02:18.097Z,72.67
2022-10-22T18:05:22.219Z,72.91
2022-10-22T18:08:26.360Z,72.94
2022-10-22T18:11:31.556Z,73.01
2022-10-22T18:14:34.734Z,72.98
2022-10-22T18:17:39.572Z,73.04
2022-10-22T18:20:49.717Z,73.09
2022-10-22T18:23:52.603Z,73.34
2022-10-22T18:26:55.753Z,73.31
2022-10-22T18:29:58.600Z,73.54
2022-10-22T18:33:01.496Z,73.63
2022-10-22T18:36:10.385Z,73.62
2022-10-22T18:39:17.532Z,73.69
2022-10-22T18:42:20.388Z,73.83
2022-10-22T18:45:23.289Z,73.83
2022-10-22T18:48:26.458Z,73.99
2022-10-22T18:51:30.942Z,74.05
2022-10-22T18:54:34.789Z,74.09
2022-10-22T18:57:37.642Z,74.34
2022-10-22T19:00:40.567Z,74.37
2022-10-22T19:03:44.390Z,74.30
2022-10-22T19:06:47.530Z,74.47
2022-10-22T19:09:50.453Z,74.48
2022-10-22T19:12:55.851Z,74.63
2022-10-22T19:16:02.527Z,74.80
2022-10-22T19:19:07.198Z,74.79
2022-10-22T19:22:13.066Z,74.95
2022-10-22T19:25:16.125Z,74.78
2022-10-22T19:28:21.422Z,74.89
2022-10-22T19:31:26.023Z,74.89
2022-10-22T19:34:28.899Z,74.90
2022-10-22T19:37:32.064Z,74.96
2022-10-22T19:40:34.925Z,75.07
2022-10-22T19:43:38.521Z,75.13
2022-10-22T19:46:41.767Z,75.28
2022-10-22T19:49:44.664Z,75.03
2022-10-22T19:52:47.587Z,75.37
2022-10-22T19:55:51.062Z,75.37
2022-10-22T19:58:54.194Z,75.39
2022-10-22T20:01:57.037Z,75.32
2022-10-22T20:04:59.940Z,75.59
2022-10-22T20:08:02.813Z,75.49
2022-10-22T20:11:10.586Z,75.68
2022-10-22T20:14:14.231Z,75.68
2022-10-22T20:17:17.103Z,75.70
2022-10-22T20:20:21.970Z,75.66
2022-10-22T20:23:28.441Z,75.71
2022-10-22T20:26:31.803Z,75.78
2022-10-22T20:29:34.694Z,75.86
2022-10-22T20:32:38.969Z,75.87
2022-10-22T20:35:42.601Z,75.83
2022-10-22T20:38:48.160Z,76.03
2022-10-22T20:41:51.409Z,75.95
2022-10-22T20:44:54.252Z,75.95
2022-10-22T20:48:02.796Z,76.05
2022-10-22T20:51:06.071Z,76.03
2022-10-22T20:54:10.001Z,76.15
2022-10-22T20:57:13.578Z,76.06
2022-10-22T21:00:16.617Z,76.20
2022-10-22T21:03:19.744Z,76.20
2022-10-22T21:06:23.111Z,76.28
2022-10-22T21:09:26.136Z,76.24
2022-10-22T21:12:29.044Z,76.31
2022-10-22T21:15:31.914Z,76.35
2022-10-22T21:18:34.926Z,76.30
2022-10-22T21:21:37.911Z,76.35
2022-10-22T21:24:41.230Z,76.33
2022-10-22T21:27:44.055Z,76.39
2022-10-22T21:30:47.201Z,76.44
2022-10-22T21:33:50.447Z,76.43
2022-10-22T21:36:53.386Z,76.56
2022-10-22T21:39:56.570Z,76.45
2022-10-22T21:42:59.459Z,76.65
2022-10-22T21:46:28.705Z,76.40
2022-10-22T21:49:31.748Z,76.63
2022-10-22T21:52:34.573Z,76.67
2022-10-22T21:55:41.635Z,76.68
2022-10-22T21:58:44.862Z,76.69
2022-10-22T22:01:47.840Z,76.71
2022-10-22T22:04:54.805Z,76.70
2022-10-22T22:07:57.797Z,76.70
2022-10-22T22:11:06.293Z,76.63
2022-10-22T22:14:09.326Z,76.69
2022-10-22T22:17:12.402Z,76.63
2022-10-22T22:20:15.405Z,76.70
2022-10-22T22:23:18.247Z,76.63
2022-10-22T22:26:29.510Z,76.78
2022-10-22T22:29:33.712Z,76.72
2022-10-22T22:32:38.612Z,76.66
2022-10-22T22:35:41.503Z,76.73
2022-10-22T22:38:44.407Z,76.88
2022-10-22T22:41:47.320Z,76.74
2022-10-22T22:44:50.178Z,76.91
2022-10-22T22:47:55.046Z,76.70
2022-10-22T22:51:00.095Z,76.83
2022-10-22T22:54:03.054Z,76.80
2022-10-22T22:57:05.962Z,76.66
2022-10-22T23:00:09.443Z,76.72
2022-10-22T23:03:12.384Z,76.64
2022-10-22T23:06:15.892Z,76.79
2022-10-22T23:12:23.662Z,76.80
2022-10-22T23:15:26.512Z,76.66
2022-10-22T23:18:29.373Z,76.65
2022-10-22T23:21:35.912Z,76.53
2022-10-22T23:24:39.405Z,76.63
2022-10-22T23:27:42.595Z,76.60
2022-10-22T23:30:45.730Z,76.55
2022-10-22T23:33:48.843Z,76.68
2022-10-22T23:36:52.521Z,76.58
2022-10-22T23:39:55.426Z,76.75
2022-10-22T23:42:58.321Z,76.60
2022-10-22T23:46:01.501Z,76.60
2022-10-22T23:49:05.632Z,76.55
2022-10-22T23:52:08.542Z,76.44
2022-10-22T23:55:11.427Z,76.51
2022-10-22T23:58:14.326Z,76.52
